sensor_id;sensor_type;location;lat;lon;timestamp;P1;durP1;ratioP1;P2;durP2;ratioP2
25667;SDS011;18003;-33.830;151.202;2023-07-28T00:02:20;4.03;;;2.75;;
25667;SDS011;18003;-33.830;151.202;2023-07-28T00:04:50;4.47;;;2.70;;
25667;SDS011;18003;-33.830;151.202;2023-07-28T00:07:20;3.55;;;2.22;;
25667;SDS011;18003;-33.830;151.202;2023-07-28T00:09:50;3.17;;;2.27;;
25667;SDS011;18003;-33.830;151.202;2023-07-28T00:12:35;5.28;;;2.42;;
25667;SDS011;18003;-33.830;151.202;2023-07-28T00:14:52;3.12;;;2.27;;
25667;SDS011;18003;-33.830;151.202;2023-07-28T00:17:22;2.85;;;2.40;;
25667;SDS011;18003;-33.830;151.202;2023-07-28T00:19:52;3.87;;;2.52;;
25667;SDS011;18003;-33.830;151.202;2023-07-28T00:22:22;2.62;;;2.42;;
25667;SDS011;18003;-33.830;151.202;2023-07-28T00:24:53;4.95;;;2.52;;
25667;SDS011;18003;-33.830;151.202;2023-07-28T00:27:23;2.50;;;2.27;;
25667;SDS011;18003;-33.830;151.202;2023-07-28T00:29:53;2.98;;;2.70;;
25667;SDS011;18003;-33.830;151.202;2023-07-28T00:32:23;2.08;;;1.87;;
25667;SDS011;18003;-33.830;151.202;2023-07-28T00:34:53;3.40;;;1.92;;
25667;SDS011;18003;-33.830;151.202;2023-07-28T00:37:23;2.65;;;2.30;;
25667;SDS011;18003;-33.830;151.202;2023-07-28T00:39:54;2.90;;;2.30;;
25667;SDS011;18003;-33.830;151.202;2023-07-28T00:42:24;3.65;;;2.45;;
25667;SDS011;18003;-33.830;151.202;2023-07-28T00:44:55;2.60;;;2.40;;
25667;SDS011;18003;-33.830;151.202;2023-07-28T00:47:25;2.90;;;2.70;;
25667;SDS011;18003;-33.830;151.202;2023-07-28T00:49:55;3.25;;;2.40;;
25667;SDS011;18003;-33.830;151.202;2023-07-28T00:52:26;2.35;;;2.25;;
25667;SDS011;18003;-33.830;151.202;2023-07-28T00:54:56;2.92;;;2.62;;
25667;SDS011;18003;-33.830;151.202;2023-07-28T00:57:30;4.03;;;2.90;;
25667;SDS011;18003;-33.830;151.202;2023-07-28T01:00:00;2.80;;;2.58;;
25667;SDS011;18003;-33.830;151.202;2023-07-28T01:02:30;2.55;;;2.30;;
25667;SDS011;18003;-33.830;151.202;2023-07-28T01:05:01;3.50;;;2.80;;
25667;SDS011;18003;-33.830;151.202;2023-07-28T01:07:43;4.28;;;2.80;;
25667;SDS011;18003;-33.830;151.202;2023-07-28T01:10:32;3.85;;;2.40;;
25667;SDS011;18003;-33.830;151.202;2023-07-28T01:13:02;5.00;;;2.80;;
25667;SDS011;18003;-33.830;151.202;2023-07-28T01:15:32;9.70;;;3.17;;
25667;SDS011;18003;-33.830;151.202;2023-07-28T01:18:02;9.78;;;3.60;;
25667;SDS011;18003;-33.830;151.202;2023-07-28T01:20:32;9.40;;;4.00;;
25667;SDS011;18003;-33.830;151.202;2023-07-28T01:23:19;12.47;;;4.33;;
25667;SDS011;18003;-33.830;151.202;2023-07-28T01:25:55;11.83;;;4.20;;
25667;SDS011;18003;-33.830;151.202;2023-07-28T01:28:33;11.63;;;3.87;;
25667;SDS011;18003;-33.830;151.202;2023-07-28T01:31:04;12.77;;;4.07;;
25667;SDS011;18003;-33.830;151.202;2023-07-28T01:33:35;9.70;;;4.03;;
25667;SDS011;18003;-33.830;151.202;2023-07-28T01:36:05;9.28;;;4.00;;
25667;SDS011;18003;-33.830;151.202;2023-07-28T01:38:35;12.78;;;4.45;;
25667;SDS011;18003;-33.830;151.202;2023-07-28T01:41:05;10.10;;;4.20;;
25667;SDS011;18003;-33.830;151.202;2023-07-28T01:43:35;5.53;;;3.22;;
25667;SDS011;18003;-33.830;151.202;2023-07-28T01:46:05;6.58;;;3.40;;
25667;SDS011;18003;-33.830;151.202;2023-07-28T01:48:35;5.30;;;3.20;;
25667;SDS011;18003;-33.830;151.202;2023-07-28T01:51:06;13.22;;;4.20;;
25667;SDS011;18003;-33.830;151.202;2023-07-28T01:53:36;11.73;;;4.20;;
25667;SDS011;18003;-33.830;151.202;2023-07-28T01:56:06;10.95;;;3.70;;
25667;SDS011;18003;-33.830;151.202;2023-07-28T01:58:36;5.97;;;3.05;;
25667;SDS011;18003;-33.830;151.202;2023-07-28T02:01:06;9.25;;;3.27;;
25667;SDS011;18003;-33.830;151.202;2023-07-28T02:03:36;14.87;;;4.20;;
25667;SDS011;18003;-33.830;151.202;2023-07-28T02:06:06;10.98;;;3.25;;
25667;SDS011;18003;-33.830;151.202;2023-07-28T02:08:36;11.12;;;3.20;;
25667;SDS011;18003;-33.830;151.202;2023-07-28T02:11:06;7.30;;;3.00;;
25667;SDS011;18003;-33.830;151.202;2023-07-28T02:13:36;7.03;;;3.40;;
25667;SDS011;18003;-33.830;151.202;2023-07-28T02:16:06;6.08;;;2.90;;
25667;SDS011;18003;-33.830;151.202;2023-07-28T02:18:36;10.40;;;3.40;;
25667;SDS011;18003;-33.830;151.202;2023-07-28T02:21:07;6.80;;;3.25;;
25667;SDS011;18003;-33.830;151.202;2023-07-28T02:23:37;9.40;;;4.00;;
25667;SDS011;18003;-33.830;151.202;2023-07-28T02:26:07;11.90;;;4.10;;
25667;SDS011;18003;-33.830;151.202;2023-07-28T02:28:37;11.85;;;4.35;;
25667;SDS011;18003;-33.830;151.202;2023-07-28T02:31:06;10.85;;;3.58;;
25667;SDS011;18003;-33.830;151.202;2023-07-28T02:33:36;11.20;;;4.10;;
25667;SDS011;18003;-33.830;151.202;2023-07-28T02:36:06;15.20;;;3.98;;
25667;SDS011;18003;-33.830;151.202;2023-07-28T02:38:37;15.45;;;4.10;;
25667;SDS011;18003;-33.830;151.202;2023-07-28T02:41:06;13.90;;;4.37;;
25667;SDS011;18003;-33.830;151.202;2023-07-28T02:43:38;10.93;;;3.58;;
25667;SDS011;18003;-33.830;151.202;2023-07-28T02:46:07;9.23;;;3.50;;
25667;SDS011;18003;-33.830;151.202;2023-07-28T02:48:37;9.83;;;3.67;;
25667;SDS011;18003;-33.830;151.202;2023-07-28T02:51:07;8.28;;;3.85;;
25667;SDS011;18003;-33.830;151.202;2023-07-28T02:53:38;6.78;;;3.00;;
25667;SDS011;18003;-33.830;151.202;2023-07-28T02:56:08;4.72;;;3.22;;
25667;SDS011;18003;-33.830;151.202;2023-07-28T02:58:38;6.08;;;3.35;;
25667;SDS011;18003;-33.830;151.202;2023-07-28T03:01:08;10.63;;;4.22;;
25667;SDS011;18003;-33.830;151.202;2023-07-28T03:03:38;11.68;;;4.30;;
25667;SDS011;18003;-33.830;151.202;2023-07-28T03:06:08;7.20;;;4.28;;
25667;SDS011;18003;-33.830;151.202;2023-07-28T03:08:38;10.13;;;4.15;;
25667;SDS011;18003;-33.830;151.202;2023-07-28T03:11:08;8.10;;;3.45;;
25667;SDS011;18003;-33.830;151.202;2023-07-28T03:13:38;6.37;;;3.30;;
25667;SDS011;18003;-33.830;151.202;2023-07-28T03:16:08;5.87;;;3.30;;
25667;SDS011;18003;-33.830;151.202;2023-07-28T03:18:38;9.83;;;4.08;;
25667;SDS011;18003;-33.830;151.202;2023-07-28T03:21:11;6.50;;;3.20;;
25667;SDS011;18003;-33.830;151.202;2023-07-28T03:23:42;5.85;;;3.12;;
25667;SDS011;18003;-33.830;151.202;2023-07-28T03:26:12;7.33;;;3.67;;
25667;SDS011;18003;-33.830;151.202;2023-07-28T03:28:42;5.78;;;3.52;;
25667;SDS011;18003;-33.830;151.202;2023-07-28T03:31:12;6.70;;;3.45;;
25667;SDS011;18003;-33.830;151.202;2023-07-28T03:33:42;6.70;;;3.83;;
25667;SDS011;18003;-33.830;151.202;2023-07-28T03:36:12;3.70;;;3.30;;
25667;SDS011;18003;-33.830;151.202;2023-07-28T03:38:42;4.22;;;3.30;;
25667;SDS011;18003;-33.830;151.202;2023-07-28T03:41:13;4.50;;;3.15;;
25667;SDS011;18003;-33.830;151.202;2023-07-28T03:43:43;5.37;;;3.10;;
25667;SDS011;18003;-33.830;151.202;2023-07-28T03:46:13;3.17;;;2.58;;
25667;SDS011;18003;-33.830;151.202;2023-07-28T03:48:43;3.20;;;2.22;;
25667;SDS011;18003;-33.830;151.202;2023-07-28T03:51:13;3.85;;;2.30;;
25667;SDS011;18003;-33.830;151.202;2023-07-28T03:53:43;4.95;;;2.22;;
25667;SDS011;18003;-33.830;151.202;2023-07-28T03:56:13;3.05;;;2.52;;
25667;SDS011;18003;-33.830;151.202;2023-07-28T03:58:43;4.83;;;2.15;;
25667;SDS011;18003;-33.830;151.202;2023-07-28T04:01:13;2.35;;;2.02;;
25667;SDS011;18003;-33.830;151.202;2023-07-28T04:03:44;4.00;;;2.62;;
25667;SDS011;18003;-33.830;151.202;2023-07-28T04:06:15;2.75;;;2.47;;
25667;SDS011;18003;-33.830;151.202;2023-07-28T04:08:45;3.08;;;2.65;;
25667;SDS011;18003;-33.830;151.202;2023-07-28T04:11:15;4.62;;;2.72;;
25667;SDS011;18003;-33.830;151.202;2023-07-28T04:13:45;3.33;;;3.08;;
25667;SDS011;18003;-33.830;151.202;2023-07-28T04:16:15;3.72;;;2.70;;
25667;SDS011;18003;-33.830;151.202;2023-07-28T04:18:45;2.72;;;2.50;;
25667;SDS011;18003;-33.830;151.202;2023-07-28T04:21:15;2.60;;;2.40;;
25667;SDS011;18003;-33.830;151.202;2023-07-28T04:23:45;3.58;;;2.52;;
25667;SDS011;18003;-33.830;151.202;2023-07-28T04:26:16;3.00;;;2.80;;
25667;SDS011;18003;-33.830;151.202;2023-07-28T04:28:46;2.50;;;2.30;;
25667;SDS011;18003;-33.830;151.202;2023-07-28T04:31:16;3.37;;;2.70;;
25667;SDS011;18003;-33.830;151.202;2023-07-28T04:33:46;2.37;;;2.08;;
25667;SDS011;18003;-33.830;151.202;2023-07-28T04:36:16;2.77;;;2.58;;
25667;SDS011;18003;-33.830;151.202;2023-07-28T04:38:46;3.72;;;2.62;;
25667;SDS011;18003;-33.830;151.202;2023-07-28T04:41:16;4.47;;;2.72;;
25667;SDS011;18003;-33.830;151.202;2023-07-28T04:43:46;3.98;;;2.40;;
25667;SDS011;18003;-33.830;151.202;2023-07-28T04:46:16;3.85;;;2.47;;
25667;SDS011;18003;-33.830;151.202;2023-07-28T04:48:46;3.80;;;2.27;;
25667;SDS011;18003;-33.830;151.202;2023-07-28T04:51:16;2.42;;;2.17;;
25667;SDS011;18003;-33.830;151.202;2023-07-28T04:53:46;2.60;;;2.40;;
25667;SDS011;18003;-33.830;151.202;2023-07-28T04:56:16;2.95;;;2.50;;
25667;SDS011;18003;-33.830;151.202;2023-07-28T04:58:46;3.10;;;2.90;;
25667;SDS011;18003;-33.830;151.202;2023-07-28T05:01:17;3.45;;;2.05;;
25667;SDS011;18003;-33.830;151.202;2023-07-28T05:03:46;2.40;;;2.20;;
25667;SDS011;18003;-33.830;151.202;2023-07-28T05:06:16;5.15;;;2.60;;
25667;SDS011;18003;-33.830;151.202;2023-07-28T05:08:46;4.25;;;2.62;;
25667;SDS011;18003;-33.830;151.202;2023-07-28T05:11:16;3.05;;;2.60;;
25667;SDS011;18003;-33.830;151.202;2023-07-28T05:13:46;3.50;;;2.45;;
25667;SDS011;18003;-33.830;151.202;2023-07-28T05:16:16;2.50;;;2.30;;
25667;SDS011;18003;-33.830;151.202;2023-07-28T05:18:46;2.58;;;2.40;;
25667;SDS011;18003;-33.830;151.202;2023-07-28T05:21:16;4.92;;;2.65;;
25667;SDS011;18003;-33.830;151.202;2023-07-28T05:23:46;2.42;;;2.22;;
25667;SDS011;18003;-33.830;151.202;2023-07-28T05:26:17;4.80;;;2.20;;
25667;SDS011;18003;-33.830;151.202;2023-07-28T05:28:47;4.60;;;2.50;;
25667;SDS011;18003;-33.830;151.202;2023-07-28T05:31:17;2.80;;;2.60;;
25667;SDS011;18003;-33.830;151.202;2023-07-28T05:33:47;3.08;;;2.45;;
25667;SDS011;18003;-33.830;151.202;2023-07-28T05:36:17;2.47;;;2.12;;
25667;SDS011;18003;-33.830;151.202;2023-07-28T05:38:47;3.80;;;2.45;;
25667;SDS011;18003;-33.830;151.202;2023-07-28T05:41:17;2.90;;;2.70;;
25667;SDS011;18003;-33.830;151.202;2023-07-28T05:43:48;3.17;;;2.65;;
25667;SDS011;18003;-33.830;151.202;2023-07-28T05:46:18;22.55;;;4.45;;
25667;SDS011;18003;-33.830;151.202;2023-07-28T05:48:47;69.12;;;9.63;;
25667;SDS011;18003;-33.830;151.202;2023-07-28T05:51:18;32.10;;;5.25;;
25667;SDS011;18003;-33.830;151.202;2023-07-28T05:53:48;10.43;;;3.72;;
25667;SDS011;18003;-33.830;151.202;2023-07-28T05:56:18;12.95;;;3.20;;
25667;SDS011;18003;-33.830;151.202;2023-07-28T05:58:48;11.68;;;3.10;;
25667;SDS011;18003;-33.830;151.202;2023-07-28T06:01:19;9.23;;;3.10;;
25667;SDS011;18003;-33.830;151.202;2023-07-28T06:03:49;4.58;;;2.90;;
25667;SDS011;18003;-33.830;151.202;2023-07-28T06:06:20;5.75;;;2.58;;
25667;SDS011;18003;-33.830;151.202;2023-07-28T06:08:50;2.65;;;2.20;;
25667;SDS011;18003;-33.830;151.202;2023-07-28T06:11:20;4.92;;;2.00;;
25667;SDS011;18003;-33.830;151.202;2023-07-28T06:13:50;255.12;;;22.67;;
25667;SDS011;18003;-33.830;151.202;2023-07-28T06:16:20;92.75;;;10.15;;
25667;SDS011;18003;-33.830;151.202;2023-07-28T06:18:51;47.93;;;6.10;;
25667;SDS011;18003;-33.830;151.202;2023-07-28T06:21:21;24.87;;;4.47;;
25667;SDS011;18003;-33.830;151.202;2023-07-28T06:23:51;13.35;;;3.40;;
25667;SDS011;18003;-33.830;151.202;2023-07-28T06:26:21;8.43;;;2.45;;
25667;SDS011;18003;-33.830;151.202;2023-07-28T06:28:51;6.97;;;2.55;;
25667;SDS011;18003;-33.830;151.202;2023-07-28T06:31:21;4.75;;;2.65;;
25667;SDS011;18003;-33.830;151.202;2023-07-28T06:33:51;4.72;;;2.40;;
25667;SDS011;18003;-33.830;151.202;2023-07-28T06:36:20;3.72;;;2.40;;
25667;SDS011;18003;-33.830;151.202;2023-07-28T06:38:50;8.88;;;2.40;;
25667;SDS011;18003;-33.830;151.202;2023-07-28T06:41:22;3.15;;;2.42;;
25667;SDS011;18003;-33.830;151.202;2023-07-28T06:43:52;3.55;;;2.50;;
25667;SDS011;18003;-33.830;151.202;2023-07-28T06:46:22;3.55;;;2.65;;
25667;SDS011;18003;-33.830;151.202;2023-07-28T06:48:52;3.77;;;2.58;;
25667;SDS011;18003;-33.830;151.202;2023-07-28T06:51:22;4.15;;;2.40;;
25667;SDS011;18003;-33.830;151.202;2023-07-28T06:53:52;2.52;;;2.40;;
25667;SDS011;18003;-33.830;151.202;2023-07-28T06:56:22;2.65;;;2.40;;
25667;SDS011;18003;-33.830;151.202;2023-07-28T06:58:52;2.58;;;2.30;;
25667;SDS011;18003;-33.830;151.202;2023-07-28T07:01:22;2.15;;;2.02;;
25667;SDS011;18003;-33.830;151.202;2023-07-28T07:03:53;3.10;;;1.98;;
25667;SDS011;18003;-33.830;151.202;2023-07-28T07:06:23;4.78;;;2.10;;
25667;SDS011;18003;-33.830;151.202;2023-07-28T07:08:53;4.50;;;2.30;;
25667;SDS011;18003;-33.830;151.202;2023-07-28T07:11:23;2.45;;;2.00;;
25667;SDS011;18003;-33.830;151.202;2023-07-28T07:13:53;2.08;;;1.90;;
25667;SDS011;18003;-33.830;151.202;2023-07-28T07:16:22;2.30;;;2.10;;
25667;SDS011;18003;-33.830;151.202;2023-07-28T07:18:52;3.72;;;2.10;;
25667;SDS011;18003;-33.830;151.202;2023-07-28T07:21:22;2.10;;;1.90;;
25667;SDS011;18003;-33.830;151.202;2023-07-28T07:23:53;2.27;;;1.95;;
25667;SDS011;18003;-33.830;151.202;2023-07-28T07:26:22;3.00;;;2.15;;
25667;SDS011;18003;-33.830;151.202;2023-07-28T07:28:52;6.33;;;2.27;;
25667;SDS011;18003;-33.830;151.202;2023-07-28T07:31:23;4.20;;;2.02;;
25667;SDS011;18003;-33.830;151.202;2023-07-28T07:33:53;2.35;;;2.00;;
25667;SDS011;18003;-33.830;151.202;2023-07-28T07:36:23;4.58;;;2.40;;
25667;SDS011;18003;-33.830;151.202;2023-07-28T07:38:53;3.58;;;2.50;;
25667;SDS011;18003;-33.830;151.202;2023-07-28T07:41:23;2.50;;;2.30;;
25667;SDS011;18003;-33.830;151.202;2023-07-28T07:43:53;4.10;;;2.70;;
25667;SDS011;18003;-33.830;151.202;2023-07-28T07:46:23;3.87;;;2.90;;
25667;SDS011;18003;-33.830;151.202;2023-07-28T07:48:53;4.55;;;3.00;;
25667;SDS011;18003;-33.830;151.202;2023-07-28T07:51:23;4.03;;;2.62;;
25667;SDS011;18003;-33.830;151.202;2023-07-28T07:53:53;3.27;;;2.98;;
25667;SDS011;18003;-33.830;151.202;2023-07-28T07:56:23;3.27;;;3.00;;
25667;SDS011;18003;-33.830;151.202;2023-07-28T07:58:53;3.08;;;2.90;;
25667;SDS011;18003;-33.830;151.202;2023-07-28T08:01:23;2.87;;;2.50;;
25667;SDS011;18003;-33.830;151.202;2023-07-28T08:03:53;4.47;;;2.87;;
25667;SDS011;18003;-33.830;151.202;2023-07-28T08:06:23;3.20;;;2.90;;
25667;SDS011;18003;-33.830;151.202;2023-07-28T08:08:53;3.02;;;2.40;;
25667;SDS011;18003;-33.830;151.202;2023-07-28T08:11:25;2.87;;;2.60;;
25667;SDS011;18003;-33.830;151.202;2023-07-28T08:13:55;3.65;;;2.58;;
25667;SDS011;18003;-33.830;151.202;2023-07-28T08:16:25;2.60;;;2.40;;
25667;SDS011;18003;-33.830;151.202;2023-07-28T08:18:55;2.60;;;2.40;;
25667;SDS011;18003;-33.830;151.202;2023-07-28T08:21:25;2.50;;;2.30;;
25667;SDS011;18003;-33.830;151.202;2023-07-28T08:23:55;5.25;;;2.35;;
25667;SDS011;18003;-33.830;151.202;2023-07-28T08:26:25;2.70;;;2.50;;
25667;SDS011;18003;-33.830;151.202;2023-07-28T08:28:55;2.80;;;2.60;;
25667;SDS011;18003;-33.830;151.202;2023-07-28T08:31:25;2.70;;;2.40;;
25667;SDS011;18003;-33.830;151.202;2023-07-28T08:33:55;2.40;;;2.20;;
25667;SDS011;18003;-33.830;151.202;2023-07-28T08:36:25;3.20;;;2.90;;
25667;SDS011;18003;-33.830;151.202;2023-07-28T08:38:55;2.60;;;2.40;;
25667;SDS011;18003;-33.830;151.202;2023-07-28T08:41:26;2.50;;;2.30;;
25667;SDS011;18003;-33.830;151.202;2023-07-28T08:43:55;2.90;;;2.60;;
25667;SDS011;18003;-33.830;151.202;2023-07-28T08:46:25;3.20;;;2.87;;
25667;SDS011;18003;-33.830;151.202;2023-07-28T08:48:55;3.30;;;3.10;;
25667;SDS011;18003;-33.830;151.202;2023-07-28T08:51:25;3.10;;;2.80;;
25667;SDS011;18003;-33.830;151.202;2023-07-28T08:53:56;3.08;;;2.80;;
25667;SDS011;18003;-33.830;151.202;2023-07-28T08:56:30;3.35;;;3.05;;
25667;SDS011;18003;-33.830;151.202;2023-07-28T08:58:57;3.30;;;3.00;;
25667;SDS011;18003;-33.830;151.202;2023-07-28T09:01:27;3.80;;;3.42;;
25667;SDS011;18003;-33.830;151.202;2023-07-28T09:03:57;3.37;;;3.02;;
25667;SDS011;18003;-33.830;151.202;2023-07-28T09:06:30;4.65;;;3.55;;
25667;SDS011;18003;-33.830;151.202;2023-07-28T09:09:00;4.58;;;3.90;;
25667;SDS011;18003;-33.830;151.202;2023-07-28T09:11:32;5.87;;;3.72;;
25667;SDS011;18003;-33.830;151.202;2023-07-28T09:14:02;4.00;;;3.60;;
25667;SDS011;18003;-33.830;151.202;2023-07-28T09:16:32;5.20;;;3.90;;
25667;SDS011;18003;-33.830;151.202;2023-07-28T09:19:06;6.37;;;4.08;;
25667;SDS011;18003;-33.830;151.202;2023-07-28T09:21:42;5.30;;;3.85;;
25667;SDS011;18003;-33.830;151.202;2023-07-28T09:24:13;9.03;;;4.42;;
25667;SDS011;18003;-33.830;151.202;2023-07-28T09:26:44;4.60;;;4.20;;
25667;SDS011;18003;-33.830;151.202;2023-07-28T09:29:18;5.45;;;4.87;;
25667;SDS011;18003;-33.830;151.202;2023-07-28T09:31:49;5.58;;;4.87;;
25667;SDS011;18003;-33.830;151.202;2023-07-28T09:34:29;6.37;;;5.00;;
25667;SDS011;18003;-33.830;151.202;2023-07-28T09:36:56;5.50;;;4.55;;
25667;SDS011;18003;-33.830;151.202;2023-07-28T09:39:27;5.47;;;4.30;;
25667;SDS011;18003;-33.830;151.202;2023-07-28T09:41:57;5.40;;;4.72;;
25667;SDS011;18003;-33.830;151.202;2023-07-28T09:44:29;6.55;;;5.35;;
25667;SDS011;18003;-33.830;151.202;2023-07-28T09:46:59;7.17;;;4.62;;
25667;SDS011;18003;-33.830;151.202;2023-07-28T09:49:36;8.05;;;5.53;;
25667;SDS011;18003;-33.830;151.202;2023-07-28T09:52:10;5.70;;;4.15;;
25667;SDS011;18003;-33.830;151.202;2023-07-28T09:54:41;5.65;;;4.25;;
25667;SDS011;18003;-33.830;151.202;2023-07-28T09:57:15;5.72;;;4.50;;
25667;SDS011;18003;-33.830;151.202;2023-07-28T09:59:46;7.67;;;5.05;;
25667;SDS011;18003;-33.830;151.202;2023-07-28T10:02:18;6.20;;;4.65;;
25667;SDS011;18003;-33.830;151.202;2023-07-28T10:04:48;6.10;;;4.65;;
25667;SDS011;18003;-33.830;151.202;2023-07-28T10:07:18;8.65;;;5.00;;
25667;SDS011;18003;-33.830;151.202;2023-07-28T10:09:50;6.50;;;4.87;;
25667;SDS011;18003;-33.830;151.202;2023-07-28T10:12:24;6.67;;;4.80;;
25667;SDS011;18003;-33.830;151.202;2023-07-28T10:15:03;9.05;;;4.92;;
25667;SDS011;18003;-33.830;151.202;2023-07-28T10:17:33;5.60;;;5.00;;
25667;SDS011;18003;-33.830;151.202;2023-07-28T10:20:05;5.95;;;4.58;;
25667;SDS011;18003;-33.830;151.202;2023-07-28T10:22:45;6.53;;;4.70;;
25667;SDS011;18003;-33.830;151.202;2023-07-28T10:25:21;5.75;;;4.50;;
25667;SDS011;18003;-33.830;151.202;2023-07-28T10:30:15;6.30;;;4.80;;
25667;SDS011;18003;-33.830;151.202;2023-07-28T10:32:48;7.50;;;4.77;;
25667;SDS011;18003;-33.830;151.202;2023-07-28T10:35:24;7.17;;;4.80;;
25667;SDS011;18003;-33.830;151.202;2023-07-28T10:37:55;4.83;;;4.25;;
25667;SDS011;18003;-33.830;151.202;2023-07-28T10:40:35;6.58;;;4.67;;
25667;SDS011;18003;-33.830;151.202;2023-07-28T10:43:05;6.35;;;4.40;;
25667;SDS011;18003;-33.830;151.202;2023-07-28T10:45:36;5.42;;;4.33;;
25667;SDS011;18003;-33.830;151.202;2023-07-28T10:48:06;8.10;;;4.50;;
25667;SDS011;18003;-33.830;151.202;2023-07-28T10:50:37;5.72;;;4.50;;
25667;SDS011;18003;-33.830;151.202;2023-07-28T10:53:07;6.25;;;4.47;;
25667;SDS011;18003;-33.830;151.202;2023-07-28T10:55:37;6.10;;;4.50;;
25667;SDS011;18003;-33.830;151.202;2023-07-28T10:58:08;5.03;;;4.40;;
25667;SDS011;18003;-33.830;151.202;2023-07-28T11:00:38;4.70;;;4.15;;
25667;SDS011;18003;-33.830;151.202;2023-07-28T11:03:08;6.37;;;4.70;;
25667;SDS011;18003;-33.830;151.202;2023-07-28T11:05:38;5.90;;;4.80;;
25667;SDS011;18003;-33.830;151.202;2023-07-28T11:08:08;6.67;;;5.15;;
25667;SDS011;18003;-33.830;151.202;2023-07-28T11:10:39;12.53;;;5.20;;
25667;SDS011;18003;-33.830;151.202;2023-07-28T11:13:11;7.55;;;4.78;;
25667;SDS011;18003;-33.830;151.202;2023-07-28T11:15:41;7.62;;;4.90;;
25667;SDS011;18003;-33.830;151.202;2023-07-28T11:18:11;7.55;;;5.30;;
25667;SDS011;18003;-33.830;151.202;2023-07-28T11:20:43;7.30;;;5.05;;
25667;SDS011;18003;-33.830;151.202;2023-07-28T11:23:13;6.15;;;5.22;;
25667;SDS011;18003;-33.830;151.202;2023-07-28T11:25:44;6.22;;;5.62;;
25667;SDS011;18003;-33.830;151.202;2023-07-28T11:28:14;10.03;;;5.55;;
25667;SDS011;18003;-33.830;151.202;2023-07-28T11:30:44;7.78;;;5.35;;
25667;SDS011;18003;-33.830;151.202;2023-07-28T11:33:15;8.13;;;5.20;;
25667;SDS011;18003;-33.830;151.202;2023-07-28T11:35:45;9.50;;;6.15;;
25667;SDS011;18003;-33.830;151.202;2023-07-28T11:38:15;6.65;;;5.80;;
25667;SDS011;18003;-33.830;151.202;2023-07-28T11:40:45;8.98;;;6.55;;
25667;SDS011;18003;-33.830;151.202;2023-07-28T11:43:15;8.45;;;5.75;;
25667;SDS011;18003;-33.830;151.202;2023-07-28T11:45:45;7.03;;;6.17;;
25667;SDS011;18003;-33.830;151.202;2023-07-28T11:48:15;8.25;;;6.50;;
25667;SDS011;18003;-33.830;151.202;2023-07-28T11:50:45;8.60;;;6.40;;
25667;SDS011;18003;-33.830;151.202;2023-07-28T11:53:16;11.15;;;7.12;;
25667;SDS011;18003;-33.830;151.202;2023-07-28T11:55:47;8.93;;;7.37;;
25667;SDS011;18003;-33.830;151.202;2023-07-28T11:58:17;9.13;;;7.45;;
25667;SDS011;18003;-33.830;151.202;2023-07-28T12:00:48;9.63;;;7.55;;
25667;SDS011;18003;-33.830;151.202;2023-07-28T12:03:18;10.32;;;7.95;;
25667;SDS011;18003;-33.830;151.202;2023-07-28T12:06:04;11.08;;;8.08;;
25667;SDS011;18003;-33.830;151.202;2023-07-28T12:08:39;11.60;;;8.83;;
25667;SDS011;18003;-33.830;151.202;2023-07-28T12:11:13;12.95;;;8.83;;
25667;SDS011;18003;-33.830;151.202;2023-07-28T12:13:48;11.45;;;8.93;;
25667;SDS011;18003;-33.830;151.202;2023-07-28T12:19:08;13.28;;;9.83;;
25667;SDS011;18003;-33.830;151.202;2023-07-28T12:21:38;11.28;;;9.08;;
25667;SDS011;18003;-33.830;151.202;2023-07-28T12:24:08;12.35;;;9.65;;
25667;SDS011;18003;-33.830;151.202;2023-07-28T12:26:38;11.08;;;9.78;;
25667;SDS011;18003;-33.830;151.202;2023-07-28T12:29:08;14.13;;;10.20;;
25667;SDS011;18003;-33.830;151.202;2023-07-28T12:31:38;13.50;;;10.40;;
25667;SDS011;18003;-33.830;151.202;2023-07-28T12:34:08;14.65;;;10.23;;
25667;SDS011;18003;-33.830;151.202;2023-07-28T12:36:38;12.18;;;10.30;;
25667;SDS011;18003;-33.830;151.202;2023-07-28T12:39:08;16.45;;;10.40;;
25667;SDS011;18003;-33.830;151.202;2023-07-28T12:41:38;13.75;;;10.50;;
25667;SDS011;18003;-33.830;151.202;2023-07-28T12:44:08;12.33;;;10.68;;
25667;SDS011;18003;-33.830;151.202;2023-07-28T12:46:38;13.65;;;11.12;;
25667;SDS011;18003;-33.830;151.202;2023-07-28T12:49:08;15.20;;;11.38;;
25667;SDS011;18003;-33.830;151.202;2023-07-28T12:51:38;14.65;;;11.75;;
25667;SDS011;18003;-33.830;151.202;2023-07-28T12:54:08;13.68;;;11.10;;
25667;SDS011;18003;-33.830;151.202;2023-07-28T12:56:38;13.78;;;11.50;;
25667;SDS011;18003;-33.830;151.202;2023-07-28T12:59:08;13.22;;;11.10;;
25667;SDS011;18003;-33.830;151.202;2023-07-28T13:01:37;14.15;;;10.93;;
25667;SDS011;18003;-33.830;151.202;2023-07-28T13:04:07;13.68;;;11.65;;
25667;SDS011;18003;-33.830;151.202;2023-07-28T13:06:37;13.20;;;10.85;;
25667;SDS011;18003;-33.830;151.202;2023-07-28T13:09:08;14.55;;;11.73;;
25667;SDS011;18003;-33.830;151.202;2023-07-28T13:11:38;14.58;;;11.73;;
25667;SDS011;18003;-33.830;151.202;2023-07-28T13:14:08;14.95;;;11.95;;
25667;SDS011;18003;-33.830;151.202;2023-07-28T13:16:39;13.08;;;11.20;;
25667;SDS011;18003;-33.830;151.202;2023-07-28T13:19:09;14.55;;;11.93;;
25667;SDS011;18003;-33.830;151.202;2023-07-28T13:21:39;14.33;;;11.22;;
25667;SDS011;18003;-33.830;151.202;2023-07-28T13:24:09;14.10;;;10.90;;
25667;SDS011;18003;-33.830;151.202;2023-07-28T13:26:38;14.43;;;11.30;;
25667;SDS011;18003;-33.830;151.202;2023-07-28T13:29:08;12.73;;;10.50;;
25667;SDS011;18003;-33.830;151.202;2023-07-28T13:31:39;14.70;;;10.97;;
25667;SDS011;18003;-33.830;151.202;2023-07-28T13:34:09;11.48;;;10.20;;
25667;SDS011;18003;-33.830;151.202;2023-07-28T13:36:40;11.85;;;9.80;;
25667;SDS011;18003;-33.830;151.202;2023-07-28T13:39:10;11.57;;;10.18;;
25667;SDS011;18003;-33.830;151.202;2023-07-28T13:41:40;11.55;;;9.60;;
25667;SDS011;18003;-33.830;151.202;2023-07-28T13:44:10;10.53;;;9.10;;
25667;SDS011;18003;-33.830;151.202;2023-07-28T13:46:40;10.43;;;9.33;;
25667;SDS011;18003;-33.830;151.202;2023-07-28T13:49:10;11.38;;;9.40;;
25667;SDS011;18003;-33.830;151.202;2023-07-28T13:51:40;11.48;;;8.95;;
25667;SDS011;18003;-33.830;151.202;2023-07-28T13:54:10;9.73;;;8.73;;
25667;SDS011;18003;-33.830;151.202;2023-07-28T13:56:40;9.25;;;8.35;;
25667;SDS011;18003;-33.830;151.202;2023-07-28T13:59:10;10.90;;;8.45;;
25667;SDS011;18003;-33.830;151.202;2023-07-28T14:01:40;9.28;;;8.25;;
25667;SDS011;18003;-33.830;151.202;2023-07-28T14:04:10;10.70;;;8.55;;
25667;SDS011;18003;-33.830;151.202;2023-07-28T14:06:40;8.78;;;7.75;;
25667;SDS011;18003;-33.830;151.202;2023-07-28T14:09:10;9.40;;;7.37;;
25667;SDS011;18003;-33.830;151.202;2023-07-28T14:11:40;8.40;;;7.45;;
25667;SDS011;18003;-33.830;151.202;2023-07-28T14:14:10;7.78;;;6.97;;
25667;SDS011;18003;-33.830;151.202;2023-07-28T14:16:41;8.20;;;7.20;;
25667;SDS011;18003;-33.830;151.202;2023-07-28T14:19:11;7.78;;;6.80;;
25667;SDS011;18003;-33.830;151.202;2023-07-28T14:21:41;7.35;;;6.65;;
25667;SDS011;18003;-33.830;151.202;2023-07-28T14:24:12;7.80;;;6.83;;
25667;SDS011;18003;-33.830;151.202;2023-07-28T14:26:42;7.25;;;6.50;;
25667;SDS011;18003;-33.830;151.202;2023-07-28T14:29:12;7.22;;;6.50;;